sensor_id;sensor_type;location;lat;lon;timestamp;P1;durP1;ratioP1;P2;durP2;ratioP2
56537;SDS011;42435;53.292;6.000;2022-08-14T00:01:41;6.30;;;4.22;;
56537;SDS011;42435;53.292;6.000;2022-08-14T00:04:06;4.72;;;3.88;;
56537;SDS011;42435;53.292;6.000;2022-08-14T00:06:32;4.97;;;3.10;;
56537;SDS011;42435;53.292;6.000;2022-08-14T00:08:57;5.65;;;4.30;;
56537;SDS011;42435;53.292;6.000;2022-08-14T00:11:23;4.65;;;3.35;;
56537;SDS011;42435;53.292;6.000;2022-08-14T00:13:49;4.78;;;3.72;;
56537;SDS011;42435;53.292;6.000;2022-08-14T00:16:14;6.78;;;4.35;;
56537;SDS011;42435;53.292;6.000;2022-08-14T00:18:40;6.72;;;3.45;;
56537;SDS011;42435;53.292;6.000;2022-08-14T00:21:06;4.60;;;4.00;;
56537;SDS011;42435;53.292;6.000;2022-08-14T00:23:32;6.10;;;4.53;;
56537;SDS011;42435;53.292;6.000;2022-08-14T00:25:58;7.10;;;4.55;;
56537;SDS011;42435;53.292;6.000;2022-08-14T00:28:24;14.57;;;4.57;;
56537;SDS011;42435;53.292;6.000;2022-08-14T00:30:51;5.53;;;4.30;;
56537;SDS011;42435;53.292;6.000;2022-08-14T00:33:20;5.15;;;4.35;;
56537;SDS011;42435;53.292;6.000;2022-08-14T00:35:46;5.15;;;4.20;;
56537;SDS011;42435;53.292;6.000;2022-08-14T00:38:11;4.95;;;4.07;;
56537;SDS011;42435;53.292;6.000;2022-08-14T00:40:37;5.30;;;4.07;;
56537;SDS011;42435;53.292;6.000;2022-08-14T00:43:03;5.03;;;4.53;;
56537;SDS011;42435;53.292;6.000;2022-08-14T00:45:29;6.13;;;4.22;;
56537;SDS011;42435;53.292;6.000;2022-08-14T00:47:54;4.25;;;3.80;;
56537;SDS011;42435;53.292;6.000;2022-08-14T00:50:21;6.85;;;4.30;;
56537;SDS011;42435;53.292;6.000;2022-08-14T00:52:47;4.78;;;4.32;;
56537;SDS011;42435;53.292;6.000;2022-08-14T00:55:16;5.35;;;4.85;;
56537;SDS011;42435;53.292;6.000;2022-08-14T00:57:43;7.60;;;4.68;;
56537;SDS011;42435;53.292;6.000;2022-08-14T01:00:11;7.43;;;4.82;;
56537;SDS011;42435;53.292;6.000;2022-08-14T01:02:41;5.82;;;3.80;;
56537;SDS011;42435;53.292;6.000;2022-08-14T01:05:08;5.72;;;4.40;;
56537;SDS011;42435;53.292;6.000;2022-08-14T01:07:48;7.47;;;5.30;;
56537;SDS011;42435;53.292;6.000;2022-08-14T01:10:24;5.72;;;4.68;;
56537;SDS011;42435;53.292;6.000;2022-08-14T01:13:12;5.93;;;4.40;;
56537;SDS011;42435;53.292;6.000;2022-08-14T01:15:41;6.07;;;4.88;;
56537;SDS011;42435;53.292;6.000;2022-08-14T01:18:08;7.03;;;5.10;;
56537;SDS011;42435;53.292;6.000;2022-08-14T01:20:53;5.43;;;4.57;;
56537;SDS011;42435;53.292;6.000;2022-08-14T01:23:30;6.72;;;5.38;;
56537;SDS011;42435;53.292;6.000;2022-08-14T01:26:04;7.70;;;5.07;;
56537;SDS011;42435;53.292;6.000;2022-08-14T01:28:30;8.82;;;5.30;;
56537;SDS011;42435;53.292;6.000;2022-08-14T01:31:00;7.40;;;5.35;;
56537;SDS011;42435;53.292;6.000;2022-08-14T01:33:30;6.38;;;5.70;;
56537;SDS011;42435;53.292;6.000;2022-08-14T01:35:56;6.78;;;5.72;;
56537;SDS011;42435;53.292;6.000;2022-08-14T01:38:24;6.82;;;5.00;;
56537;SDS011;42435;53.292;6.000;2022-08-14T01:41:08;7.95;;;5.30;;
56537;SDS011;42435;53.292;6.000;2022-08-14T01:43:49;9.18;;;5.38;;
56537;SDS011;42435;53.292;6.000;2022-08-14T01:46:25;7.32;;;5.93;;
56537;SDS011;42435;53.292;6.000;2022-08-14T01:48:53;7.40;;;5.80;;
56537;SDS011;42435;53.292;6.000;2022-08-14T01:51:21;10.20;;;6.70;;
56537;SDS011;42435;53.292;6.000;2022-08-14T01:53:51;8.32;;;6.15;;
56537;SDS011;42435;53.292;6.000;2022-08-14T01:56:18;8.73;;;5.93;;
56537;SDS011;42435;53.292;6.000;2022-08-14T01:58:45;7.03;;;5.65;;
56537;SDS011;42435;53.292;6.000;2022-08-14T02:01:16;8.88;;;6.32;;
56537;SDS011;42435;53.292;6.000;2022-08-14T02:03:43;11.68;;;7.35;;
56537;SDS011;42435;53.292;6.000;2022-08-14T02:06:10;8.57;;;5.90;;
56537;SDS011;42435;53.292;6.000;2022-08-14T02:08:36;6.50;;;5.55;;
56537;SDS011;42435;53.292;6.000;2022-08-14T02:11:04;8.50;;;6.28;;
56537;SDS011;42435;53.292;6.000;2022-08-14T02:13:42;9.52;;;7.35;;
56537;SDS011;42435;53.292;6.000;2022-08-14T02:16:10;11.48;;;7.30;;
56537;SDS011;42435;53.292;6.000;2022-08-14T02:18:36;9.90;;;7.18;;
56537;SDS011;42435;53.292;6.000;2022-08-14T02:21:04;9.52;;;6.88;;
56537;SDS011;42435;53.292;6.000;2022-08-14T02:23:30;8.10;;;6.80;;
56537;SDS011;42435;53.292;6.000;2022-08-14T02:26:00;9.73;;;6.57;;
56537;SDS011;42435;53.292;6.000;2022-08-14T02:28:28;9.80;;;6.80;;
56537;SDS011;42435;53.292;6.000;2022-08-14T02:30:56;8.95;;;6.80;;
56537;SDS011;42435;53.292;6.000;2022-08-14T02:33:25;10.77;;;7.28;;
56537;SDS011;42435;53.292;6.000;2022-08-14T02:35:51;10.48;;;7.00;;
56537;SDS011;42435;53.292;6.000;2022-08-14T02:38:17;9.98;;;6.95;;
56537;SDS011;42435;53.292;6.000;2022-08-14T02:40:42;11.43;;;7.18;;
56537;SDS011;42435;53.292;6.000;2022-08-14T02:43:08;9.27;;;7.40;;
56537;SDS011;42435;53.292;6.000;2022-08-14T02:45:33;10.07;;;7.35;;
56537;SDS011;42435;53.292;6.000;2022-08-14T02:47:59;10.15;;;7.30;;
56537;SDS011;42435;53.292;6.000;2022-08-14T02:50:27;10.32;;;7.15;;
56537;SDS011;42435;53.292;6.000;2022-08-14T02:52:53;10.55;;;7.50;;
56537;SDS011;42435;53.292;6.000;2022-08-14T02:55:19;9.07;;;6.88;;
56537;SDS011;42435;53.292;6.000;2022-08-14T02:57:45;10.15;;;7.25;;
56537;SDS011;42435;53.292;6.000;2022-08-14T03:00:15;7.72;;;6.20;;
56537;SDS011;42435;53.292;6.000;2022-08-14T03:02:42;10.00;;;7.07;;
56537;SDS011;42435;53.292;6.000;2022-08-14T03:05:07;8.07;;;6.18;;
56537;SDS011;42435;53.292;6.000;2022-08-14T03:07:36;10.35;;;7.00;;
56537;SDS011;42435;53.292;6.000;2022-08-14T03:10:01;13.02;;;8.57;;
56537;SDS011;42435;53.292;6.000;2022-08-14T03:12:27;10.48;;;7.32;;
56537;SDS011;42435;53.292;6.000;2022-08-14T03:14:53;7.60;;;6.32;;
56537;SDS011;42435;53.292;6.000;2022-08-14T03:17:19;10.77;;;7.95;;
56537;SDS011;42435;53.292;6.000;2022-08-14T03:19:44;9.52;;;7.18;;
56537;SDS011;42435;53.292;6.000;2022-08-14T03:22:10;11.25;;;8.07;;
56537;SDS011;42435;53.292;6.000;2022-08-14T03:24:36;9.45;;;7.13;;
56537;SDS011;42435;53.292;6.000;2022-08-14T03:27:01;11.60;;;8.18;;
56537;SDS011;42435;53.292;6.000;2022-08-14T03:29:27;10.35;;;6.88;;
56537;SDS011;42435;53.292;6.000;2022-08-14T03:31:56;9.45;;;7.05;;
56537;SDS011;42435;53.292;6.000;2022-08-14T03:34:23;8.80;;;7.57;;
56537;SDS011;42435;53.292;6.000;2022-08-14T03:36:50;9.60;;;7.13;;
56537;SDS011;42435;53.292;6.000;2022-08-14T03:39:19;12.35;;;8.07;;
56537;SDS011;42435;53.292;6.000;2022-08-14T03:41:46;12.75;;;8.48;;
56537;SDS011;42435;53.292;6.000;2022-08-14T03:44:13;11.18;;;7.90;;
56537;SDS011;42435;53.292;6.000;2022-08-14T03:46:39;10.27;;;7.55;;
56537;SDS011;42435;53.292;6.000;2022-08-14T03:49:07;10.38;;;7.80;;
56537;SDS011;42435;53.292;6.000;2022-08-14T03:51:34;10.23;;;7.88;;
56537;SDS011;42435;53.292;6.000;2022-08-14T03:54:03;11.05;;;8.25;;
56537;SDS011;42435;53.292;6.000;2022-08-14T03:56:32;10.05;;;7.43;;
56537;SDS011;42435;53.292;6.000;2022-08-14T03:59:01;9.75;;;7.18;;
56537;SDS011;42435;53.292;6.000;2022-08-14T04:01:32;11.15;;;7.88;;
56537;SDS011;42435;53.292;6.000;2022-08-14T04:03:57;11.18;;;7.90;;
56537;SDS011;42435;53.292;6.000;2022-08-14T04:06:26;10.90;;;7.57;;
56537;SDS011;42435;53.292;6.000;2022-08-14T04:08:52;9.77;;;8.10;;
56537;SDS011;42435;53.292;6.000;2022-08-14T04:11:18;10.00;;;7.35;;
56537;SDS011;42435;53.292;6.000;2022-08-14T04:13:44;10.55;;;7.47;;
56537;SDS011;42435;53.292;6.000;2022-08-14T04:16:11;10.43;;;8.32;;
56537;SDS011;42435;53.292;6.000;2022-08-14T04:18:39;9.63;;;7.15;;
56537;SDS011;42435;53.292;6.000;2022-08-14T04:21:08;11.05;;;8.18;;
56537;SDS011;42435;53.292;6.000;2022-08-14T04:23:34;11.15;;;7.13;;
56537;SDS011;42435;53.292;6.000;2022-08-14T04:26:01;10.73;;;8.15;;
56537;SDS011;42435;53.292;6.000;2022-08-14T04:28:28;11.40;;;8.13;;
56537;SDS011;42435;53.292;6.000;2022-08-14T04:30:54;9.57;;;7.53;;
56537;SDS011;42435;53.292;6.000;2022-08-14T04:33:20;11.88;;;7.07;;
56537;SDS011;42435;53.292;6.000;2022-08-14T04:35:48;9.05;;;6.95;;
56537;SDS011;42435;53.292;6.000;2022-08-14T04:38:15;10.60;;;8.07;;
56537;SDS011;42435;53.292;6.000;2022-08-14T04:41:00;11.13;;;7.53;;
56537;SDS011;42435;53.292;6.000;2022-08-14T04:43:44;10.85;;;7.50;;
56537;SDS011;42435;53.292;6.000;2022-08-14T04:46:11;8.90;;;6.43;;
56537;SDS011;42435;53.292;6.000;2022-08-14T04:48:39;11.73;;;7.47;;
56537;SDS011;42435;53.292;6.000;2022-08-14T04:51:06;10.38;;;8.02;;
56537;SDS011;42435;53.292;6.000;2022-08-14T04:53:33;12.50;;;9.27;;
56537;SDS011;42435;53.292;6.000;2022-08-14T04:56:00;9.25;;;6.93;;
56537;SDS011;42435;53.292;6.000;2022-08-14T04:58:27;11.27;;;7.28;;
56537;SDS011;42435;53.292;6.000;2022-08-14T05:00:55;12.35;;;8.63;;
56537;SDS011;42435;53.292;6.000;2022-08-14T05:03:24;11.75;;;8.73;;
56537;SDS011;42435;53.292;6.000;2022-08-14T05:05:56;12.40;;;9.35;;
56537;SDS011;42435;53.292;6.000;2022-08-14T05:08:24;11.80;;;8.60;;
56537;SDS011;42435;53.292;6.000;2022-08-14T05:10:51;12.05;;;8.68;;
56537;SDS011;42435;53.292;6.000;2022-08-14T05:13:18;15.70;;;9.50;;
56537;SDS011;42435;53.292;6.000;2022-08-14T05:15:46;12.88;;;8.88;;
56537;SDS011;42435;53.292;6.000;2022-08-14T05:18:13;10.95;;;8.27;;
56537;SDS011;42435;53.292;6.000;2022-08-14T05:20:41;11.85;;;7.95;;
56537;SDS011;42435;53.292;6.000;2022-08-14T05:23:11;10.43;;;8.50;;
56537;SDS011;42435;53.292;6.000;2022-08-14T05:25:38;10.32;;;8.30;;
56537;SDS011;42435;53.292;6.000;2022-08-14T05:28:08;14.95;;;8.40;;
56537;SDS011;42435;53.292;6.000;2022-08-14T05:30:35;11.70;;;8.68;;
56537;SDS011;42435;53.292;6.000;2022-08-14T05:33:01;12.25;;;7.72;;
56537;SDS011;42435;53.292;6.000;2022-08-14T05:35:26;13.13;;;8.43;;
56537;SDS011;42435;53.292;6.000;2022-08-14T05:37:52;11.25;;;8.20;;
56537;SDS011;42435;53.292;6.000;2022-08-14T05:40:18;11.20;;;8.60;;
56537;SDS011;42435;53.292;6.000;2022-08-14T05:42:43;13.10;;;8.32;;
56537;SDS011;42435;53.292;6.000;2022-08-14T05:45:09;11.85;;;8.82;;
56537;SDS011;42435;53.292;6.000;2022-08-14T05:47:40;11.13;;;8.80;;
56537;SDS011;42435;53.292;6.000;2022-08-14T05:50:07;11.50;;;7.90;;
56537;SDS011;42435;53.292;6.000;2022-08-14T05:52:33;10.88;;;8.50;;
56537;SDS011;42435;53.292;6.000;2022-08-14T05:54:59;9.55;;;8.18;;
56537;SDS011;42435;53.292;6.000;2022-08-14T05:57:25;10.80;;;8.13;;
56537;SDS011;42435;53.292;6.000;2022-08-14T05:59:51;10.15;;;7.38;;
56537;SDS011;42435;53.292;6.000;2022-08-14T06:02:16;9.88;;;7.00;;
56537;SDS011;42435;53.292;6.000;2022-08-14T06:04:42;8.98;;;7.57;;
56537;SDS011;42435;53.292;6.000;2022-08-14T06:07:12;11.13;;;8.40;;
56537;SDS011;42435;53.292;6.000;2022-08-14T06:09:38;9.23;;;7.57;;
56537;SDS011;42435;53.292;6.000;2022-08-14T06:12:04;12.25;;;7.72;;
56537;SDS011;42435;53.292;6.000;2022-08-14T06:14:31;10.10;;;7.53;;
56537;SDS011;42435;53.292;6.000;2022-08-14T06:16:56;10.50;;;7.75;;
56537;SDS011;42435;53.292;6.000;2022-08-14T06:19:22;9.77;;;7.85;;
56537;SDS011;42435;53.292;6.000;2022-08-14T06:21:48;9.65;;;7.20;;
56537;SDS011;42435;53.292;6.000;2022-08-14T06:24:13;9.38;;;8.23;;
56537;SDS011;42435;53.292;6.000;2022-08-14T06:26:39;13.02;;;7.90;;
56537;SDS011;42435;53.292;6.000;2022-08-14T06:29:05;10.63;;;8.18;;
56537;SDS011;42435;53.292;6.000;2022-08-14T06:31:30;9.25;;;7.10;;
56537;SDS011;42435;53.292;6.000;2022-08-14T06:33:56;9.73;;;7.80;;
56537;SDS011;42435;53.292;6.000;2022-08-14T06:36:21;8.35;;;7.22;;
56537;SDS011;42435;53.292;6.000;2022-08-14T06:38:47;9.63;;;7.72;;
56537;SDS011;42435;53.292;6.000;2022-08-14T06:41:14;8.25;;;7.00;;
56537;SDS011;42435;53.292;6.000;2022-08-14T06:43:40;9.25;;;7.53;;
56537;SDS011;42435;53.292;6.000;2022-08-14T06:46:05;12.23;;;7.70;;
56537;SDS011;42435;53.292;6.000;2022-08-14T06:48:33;9.77;;;7.63;;
56537;SDS011;42435;53.292;6.000;2022-08-14T06:51:02;10.98;;;7.30;;
56537;SDS011;42435;53.292;6.000;2022-08-14T06:53:27;7.88;;;6.38;;
56537;SDS011;42435;53.292;6.000;2022-08-14T06:55:53;10.95;;;6.78;;
56537;SDS011;42435;53.292;6.000;2022-08-14T06:58:19;9.02;;;7.30;;
56537;SDS011;42435;53.292;6.000;2022-08-14T07:00:45;8.43;;;7.13;;
56537;SDS011;42435;53.292;6.000;2022-08-14T07:03:30;9.35;;;6.63;;
56537;SDS011;42435;53.292;6.000;2022-08-14T07:06:15;8.80;;;7.22;;
56537;SDS011;42435;53.292;6.000;2022-08-14T07:08:41;9.13;;;7.18;;
56537;SDS011;42435;53.292;6.000;2022-08-14T07:11:07;7.43;;;6.57;;
56537;SDS011;42435;53.292;6.000;2022-08-14T07:13:34;8.75;;;7.40;;
56537;SDS011;42435;53.292;6.000;2022-08-14T07:16:01;9.00;;;6.22;;
56537;SDS011;42435;53.292;6.000;2022-08-14T07:18:28;8.00;;;6.78;;
56537;SDS011;42435;53.292;6.000;2022-08-14T07:20:55;7.57;;;6.57;;
56537;SDS011;42435;53.292;6.000;2022-08-14T07:23:22;8.07;;;5.75;;
56537;SDS011;42435;53.292;6.000;2022-08-14T07:25:48;7.85;;;5.82;;
56537;SDS011;42435;53.292;6.000;2022-08-14T07:28:20;14.23;;;6.97;;
56537;SDS011;42435;53.292;6.000;2022-08-14T07:30:48;6.30;;;5.28;;
56537;SDS011;42435;53.292;6.000;2022-08-14T07:33:15;6.72;;;5.20;;
56537;SDS011;42435;53.292;6.000;2022-08-14T07:38:07;8.80;;;6.43;;
56537;SDS011;42435;53.292;6.000;2022-08-14T07:40:41;5.90;;;5.28;;
56537;SDS011;42435;53.292;6.000;2022-08-14T07:43:06;7.38;;;5.93;;
56537;SDS011;42435;53.292;6.000;2022-08-14T07:45:32;7.32;;;6.30;;
56537;SDS011;42435;53.292;6.000;2022-08-14T07:47:57;6.20;;;5.40;;
56537;SDS011;42435;53.292;6.000;2022-08-14T07:50:23;7.47;;;5.75;;
56537;SDS011;42435;53.292;6.000;2022-08-14T07:52:49;7.20;;;5.22;;
56537;SDS011;42435;53.292;6.000;2022-08-14T07:57:41;6.20;;;5.60;;
56537;SDS011;42435;53.292;6.000;2022-08-14T08:00:10;5.70;;;5.00;;
56537;SDS011;42435;53.292;6.000;2022-08-14T08:14:52;6.75;;;5.53;;
56537;SDS011;42435;53.292;6.000;2022-08-14T08:17:21;6.28;;;4.80;;
56537;SDS011;42435;53.292;6.000;2022-08-14T08:19:47;7.28;;;5.97;;
56537;SDS011;42435;53.292;6.000;2022-08-14T08:22:13;8.23;;;5.85;;
56537;SDS011;42435;53.292;6.000;2022-08-14T08:24:39;9.70;;;5.30;;
56537;SDS011;42435;53.292;6.000;2022-08-14T08:27:15;7.72;;;5.78;;
56537;SDS011;42435;53.292;6.000;2022-08-14T08:29:41;7.55;;;5.88;;
56537;SDS011;42435;53.292;6.000;2022-08-14T08:32:06;7.75;;;5.57;;
56537;SDS011;42435;53.292;6.000;2022-08-14T08:34:41;6.32;;;5.72;;
56537;SDS011;42435;53.292;6.000;2022-08-14T08:37:09;6.57;;;5.13;;
56537;SDS011;42435;53.292;6.000;2022-08-14T08:39:46;6.82;;;5.05;;
56537;SDS011;42435;53.292;6.000;2022-08-14T08:42:12;6.15;;;5.30;;
56537;SDS011;42435;53.292;6.000;2022-08-14T08:44:55;8.65;;;5.13;;
56537;SDS011;42435;53.292;6.000;2022-08-14T08:47:20;5.88;;;5.22;;
56537;SDS011;42435;53.292;6.000;2022-08-14T08:49:46;5.75;;;5.15;;
56537;SDS011;42435;53.292;6.000;2022-08-14T08:52:11;6.20;;;5.45;;
56537;SDS011;42435;53.292;6.000;2022-08-14T08:54:37;5.50;;;4.90;;
56537;SDS011;42435;53.292;6.000;2022-08-14T08:57:09;6.78;;;4.80;;
56537;SDS011;42435;53.292;6.000;2022-08-14T08:59:37;5.30;;;4.80;;
56537;SDS011;42435;53.292;6.000;2022-08-14T09:02:04;6.28;;;5.10;;
56537;SDS011;42435;53.292;6.000;2022-08-14T09:04:37;6.43;;;4.70;;
56537;SDS011;42435;53.292;6.000;2022-08-14T09:07:05;5.50;;;5.00;;
56537;SDS011;42435;53.292;6.000;2022-08-14T09:09:32;7.82;;;4.97;;
56537;SDS011;42435;53.292;6.000;2022-08-14T09:11:59;7.18;;;4.70;;
56537;SDS011;42435;53.292;6.000;2022-08-14T09:14:27;4.95;;;4.55;;
56537;SDS011;42435;53.292;6.000;2022-08-14T09:16:54;6.38;;;4.55;;
56537;SDS011;42435;53.292;6.000;2022-08-14T09:19:21;6.80;;;4.97;;
56537;SDS011;42435;53.292;6.000;2022-08-14T09:21:47;4.78;;;4.30;;
56537;SDS011;42435;53.292;6.000;2022-08-14T09:24:13;5.00;;;4.50;;
56537;SDS011;42435;53.292;6.000;2022-08-14T09:26:41;7.05;;;4.80;;
56537;SDS011;42435;53.292;6.000;2022-08-14T09:29:08;6.00;;;4.20;;
56537;SDS011;42435;53.292;6.000;2022-08-14T09:31:35;6.43;;;5.32;;
56537;SDS011;42435;53.292;6.000;2022-08-14T09:34:11;5.78;;;4.63;;
56537;SDS011;42435;53.292;6.000;2022-08-14T09:39:19;5.25;;;4.28;;
56537;SDS011;42435;53.292;6.000;2022-08-14T09:42:15;4.45;;;4.05;;
56537;SDS011;42435;53.292;6.000;2022-08-14T09:47:49;5.28;;;4.78;;
56537;SDS011;42435;53.292;6.000;2022-08-14T09:50:30;6.22;;;4.72;;
56537;SDS011;42435;53.292;6.000;2022-08-14T09:53:07;5.35;;;4.80;;
56537;SDS011;42435;53.292;6.000;2022-08-14T09:55:34;6.57;;;4.57;;
56537;SDS011;42435;53.292;6.000;2022-08-14T09:58:11;5.07;;;4.57;;
56537;SDS011;42435;53.292;6.000;2022-08-14T10:00:51;5.00;;;4.50;;
56537;SDS011;42435;53.292;6.000;2022-08-14T10:03:30;4.90;;;4.40;;
56537;SDS011;42435;53.292;6.000;2022-08-14T10:06:03;5.85;;;4.55;;
56537;SDS011;42435;53.292;6.000;2022-08-14T10:08:40;4.55;;;4.15;;
56537;SDS011;42435;53.292;6.000;2022-08-14T10:11:16;4.70;;;3.80;;
56537;SDS011;42435;53.292;6.000;2022-08-14T10:13:48;4.90;;;4.40;;
56537;SDS011;42435;53.292;6.000;2022-08-14T10:16:18;4.72;;;4.32;;
56537;SDS011;42435;53.292;6.000;2022-08-14T10:18:59;4.07;;;3.67;;
56537;SDS011;42435;53.292;6.000;2022-08-14T10:21:30;4.50;;;4.10;;
56537;SDS011;42435;53.292;6.000;2022-08-14T10:23:56;4.57;;;4.10;;
56537;SDS011;42435;53.292;6.000;2022-08-14T10:26:21;4.55;;;4.15;;
56537;SDS011;42435;53.292;6.000;2022-08-14T10:28:49;4.65;;;3.65;;
56537;SDS011;42435;53.292;6.000;2022-08-14T10:34:01;5.18;;;4.28;;
56537;SDS011;42435;53.292;6.000;2022-08-14T10:36:38;5.57;;;4.22;;
56537;SDS011;42435;53.292;6.000;2022-08-14T10:39:15;4.45;;;4.05;;
56537;SDS011;42435;53.292;6.000;2022-08-14T10:41:41;6.85;;;4.32;;
56537;SDS011;42435;53.292;6.000;2022-08-14T10:44:09;4.75;;;4.32;;
56537;SDS011;42435;53.292;6.000;2022-08-14T10:49:24;5.13;;;4.43;;
56537;SDS011;42435;53.292;6.000;2022-08-14T10:51:58;4.50;;;3.72;;
56537;SDS011;42435;53.292;6.000;2022-08-14T10:54:40;5.43;;;4.13;;
56537;SDS011;42435;53.292;6.000;2022-08-14T10:57:15;5.18;;;4.20;;
56537;SDS011;42435;53.292;6.000;2022-08-14T11:00:10;4.70;;;4.30;;
56537;SDS011;42435;53.292;6.000;2022-08-14T11:02:39;4.47;;;4.07;;
56537;SDS011;42435;53.292;6.000;2022-08-14T11:05:07;5.68;;;3.92;;
56537;SDS011;42435;53.292;6.000;2022-08-14T11:07:35;4.88;;;4.40;;
56537;SDS011;42435;53.292;6.000;2022-08-14T11:10:13;5.28;;;4.75;;
56537;SDS011;42435;53.292;6.000;2022-08-14T11:17:36;4.65;;;4.22;;
56537;SDS011;42435;53.292;6.000;2022-08-14T11:20:04;4.10;;;3.70;;
56537;SDS011;42435;53.292;6.000;2022-08-14T11:22:32;4.30;;;3.90;;
56537;SDS011;42435;53.292;6.000;2022-08-14T11:25:00;5.40;;;4.35;;
56537;SDS011;42435;53.292;6.000;2022-08-14T11:27:28;4.32;;;3.75;;
56537;SDS011;42435;53.292;6.000;2022-08-14T11:29:58;4.65;;;4.20;;
56537;SDS011;42435;53.292;6.000;2022-08-14T11:32:26;4.40;;;3.72;;
56537;SDS011;42435;53.292;6.000;2022-08-14T11:34:53;4.40;;;4.00;;
56537;SDS011;42435;53.292;6.000;2022-08-14T11:37:18;5.38;;;4.25;;
56537;SDS011;42435;53.292;6.000;2022-08-14T11:39:45;5.93;;;3.67;;
56537;SDS011;42435;53.292;6.000;2022-08-14T11:42:18;4.93;;;3.90;;
56537;SDS011;42435;53.292;6.000;2022-08-14T11:47:13;6.05;;;4.43;;
56537;SDS011;42435;53.292;6.000;2022-08-14T11:49:43;4.68;;;4.28;;
56537;SDS011;42435;53.292;6.000;2022-08-14T11:52:13;5.55;;;3.90;;
56537;SDS011;42435;53.292;6.000;2022-08-14T11:54:39;4.32;;;3.85;;
56537;SDS011;42435;53.292;6.000;2022-08-14T11:57:15;4.53;;;3.90;;
56537;SDS011;42435;53.292;6.000;2022-08-14T11:59:41;4.50;;;3.85;;
56537;SDS011;42435;53.292;6.000;2022-08-14T12:02:11;4.32;;;3.92;;
56537;SDS011;42435;53.292;6.000;2022-08-14T12:04:48;5.10;;;3.40;;
56537;SDS011;42435;53.292;6.000;2022-08-14T12:07:14;4.53;;;3.70;;
56537;SDS011;42435;53.292;6.000;2022-08-14T12:09:41;4.45;;;4.03;;
56537;SDS011;42435;53.292;6.000;2022-08-14T12:12:14;4.10;;;3.70;;
56537;SDS011;42435;53.292;6.000;2022-08-14T12:14:53;3.95;;;3.65;;
56537;SDS011;42435;53.292;6.000;2022-08-14T12:17:27;4.55;;;3.75;;
56537;SDS011;42435;53.292;6.000;2022-08-14T12:22:39;3.55;;;3.25;;
56537;SDS011;42435;53.292;6.000;2022-08-14T12:25:07;4.00;;;3.20;;
56537;SDS011;42435;53.292;6.000;2022-08-14T12:30:00;4.20;;;3.80;;
56537;SDS011;42435;53.292;6.000;2022-08-14T12:32:26;4.90;;;3.33;;
56537;SDS011;42435;53.292;6.000;2022-08-14T12:35:03;4.65;;;3.58;;
56537;SDS011;42435;53.292;6.000;2022-08-14T12:37:29;3.97;;;3.65;;
56537;SDS011;42435;53.292;6.000;2022-08-14T12:40:06;4.07;;;3.67;;
56537;SDS011;42435;53.292;6.000;2022-08-14T12:42:42;3.60;;;3.30;;
56537;SDS011;42435;53.292;6.000;2022-08-14T12:45:09;3.83;;;3.25;;
56537;SDS011;42435;53.292;6.000;2022-08-14T12:47:37;3.60;;;3.30;;
56537;SDS011;42435;53.292;6.000;2022-08-14T12:50:08;3.72;;;3.20;;
56537;SDS011;42435;53.292;6.000;2022-08-14T12:52:38;3.85;;;3.47;;
56537;SDS011;42435;53.292;6.000;2022-08-14T12:55:09;3.50;;;3.20;;
56537;SDS011;42435;53.292;6.000;2022-08-14T13:02:43;3.65;;;3.03;;
56537;SDS011;42435;53.292;6.000;2022-08-14T13:05:14;3.45;;;3.15;;
56537;SDS011;42435;53.292;6.000;2022-08-14T13:07:40;4.88;;;3.40;;
56537;SDS011;42435;53.292;6.000;2022-08-14T13:10:07;3.88;;;3.47;;
56537;SDS011;42435;53.292;6.000;2022-08-14T13:12:37;3.75;;;3.45;;
56537;SDS011;42435;53.292;6.000;2022-08-14T13:15:04;3.97;;;3.40;;
56537;SDS011;42435;53.292;6.000;2022-08-14T13:17:41;8.18;;;3.45;;
56537;SDS011;42435;53.292;6.000;2022-08-14T13:20:12;4.40;;;3.97;;
56537;SDS011;42435;53.292;6.000;2022-08-14T13:22:40;3.85;;;3.47;;
56537;SDS011;42435;53.292;6.000;2022-08-14T13:25:12;4.03;;;3.45;;
56537;SDS011;42435;53.292;6.000;2022-08-14T13:27:39;4.28;;;3.75;;
56537;SDS011;42435;53.292;6.000;2022-08-14T13:30:10;3.75;;;3.25;;
56537;SDS011;42435;53.292;6.000;2022-08-14T13:32:36;3.90;;;3.60;;
56537;SDS011;42435;53.292;6.000;2022-08-14T13:35:09;5.72;;;3.95;;
56537;SDS011;42435;53.292;6.000;2022-08-14T13:37:35;3.80;;;3.22;;
56537;SDS011;42435;53.292;6.000;2022-08-14T13:40:03;7.75;;;3.53;;
56537;SDS011;42435;53.292;6.000;2022-08-14T13:42:29;3.60;;;3.30;;
56537;SDS011;42435;53.292;6.000;2022-08-14T13:44:56;3.90;;;3.50;;
56537;SDS011;42435;53.292;6.000;2022-08-14T13:47:26;4.55;;;3.67;;
56537;SDS011;42435;53.292;6.000;2022-08-14T13:49:57;5.53;;;4.40;;
56537;SDS011;42435;53.292;6.000;2022-08-14T13:52:29;3.78;;;3.35;;
56537;SDS011;42435;53.292;6.000;2022-08-14T13:55:00;4.20;;;3.80;;
56537;SDS011;42435;53.292;6.000;2022-08-14T13:57:28;5.45;;;4.22;;
56537;SDS011;42435;53.292;6.000;2022-08-14T13:59:59;4.63;;;4.20;;
56537;SDS011;42435;53.292;6.000;2022-08-14T14:02:33;5.28;;;4.75;;
56537;SDS011;42435;53.292;6.000;2022-08-14T14:05:03;4.78;;;4.25;;
56537;SDS011;42435;53.292;6.000;2022-08-14T14:07:28;3.97;;;3.58;;
56537;SDS011;42435;53.292;6.000;2022-08-14T14:09:58;4.43;;;4.05;;
56537;SDS011;42435;53.292;6.000;2022-08-14T14:12:26;5.25;;;4.72;;
56537;SDS011;42435;53.292;6.000;2022-08-14T14:14:52;4.60;;;4.10;;
56537;SDS011;42435;53.292;6.000;2022-08-14T14:17:18;5.60;;;4.10;;
56537;SDS011;42435;53.292;6.000;2022-08-14T14:19:48;4.78;;;4.15;;
56537;SDS011;42435;53.292;6.000;2022-08-14T14:22:15;5.90;;;4.20;;
56537;SDS011;42435;53.292;6.000;2022-08-14T14:24:42;4.90;;;4.40;;
56537;SDS011;42435;53.292;6.000;2022-08-14T14:27:09;4.97;;;4.50;;
56537;SDS011;42435;53.292;6.000;2022-08-14T14:29:36;5.10;;;4.60;;
56537;SDS011;42435;53.292;6.000;2022-08-14T14:32:11;4.70;;;4.20;;
56537;SDS011;42435;53.292;6.000;2022-08-14T14:34:37;4.78;;;3.83;;
56537;SDS011;42435;53.292;6.000;2022-08-14T14:37:05;4.30;;;4.00;;
56537;SDS011;42435;53.292;6.000;2022-08-14T14:39:35;4.90;;;4.50;;
56537;SDS011;42435;53.292;6.000;2022-08-14T14:42:02;4.55;;;3.92;;
56537;SDS011;42435;53.292;6.000;2022-08-14T14:44:33;5.60;;;4.28;;
56537;SDS011;42435;53.292;6.000;2022-08-14T14:47:13;4.32;;;3.92;;
56537;SDS011;42435;53.292;6.000;2022-08-14T14:49:40;5.72;;;4.38;;
56537;SDS011;42435;53.292;6.000;2022-08-14T14:52:07;5.32;;;4.10;;
56537;SDS011;42435;53.292;6.000;2022-08-14T14:54:34;4.40;;;4.00;;
56537;SDS011;42435;53.292;6.000;2022-08-14T14:57:00;4.97;;;4.47;;
56537;SDS011;42435;53.292;6.000;2022-08-14T14:59:27;4.50;;;4.07;;
56537;SDS011;42435;53.292;6.000;2022-08-14T15:01:57;4.60;;;4.20;;
56537;SDS011;42435;53.292;6.000;2022-08-14T15:04:24;4.68;;;4.28;;
56537;SDS011;42435;53.292;6.000;2022-08-14T15:06:50;4.18;;;3.78;;
56537;SDS011;42435;53.292;6.000;2022-08-14T15:09:16;4.50;;;3.78;;
56537;SDS011;42435;53.292;6.000;2022-08-14T15:11:42;4.80;;;4.03;;
56537;SDS011;42435;53.292;6.000;2022-08-14T15:14:08;6.15;;;4.18;;
56537;SDS011;42435;53.292;6.000;2022-08-14T15:16:34;5.43;;;4.53;;
56537;SDS011;42435;53.292;6.000;2022-08-14T15:19:00;5.03;;;4.03;;
56537;SDS011;42435;53.292;6.000;2022-08-14T15:21:25;4.38;;;3.97;;
56537;SDS011;42435;53.292;6.000;2022-08-14T15:23:51;4.53;;;3.80;;
56537;SDS011;42435;53.292;6.000;2022-08-14T15:26:17;4.40;;;4.00;;
56537;SDS011;42435;53.292;6.000;2022-08-14T15:28:43;4.35;;;3.95;;
56537;SDS011;42435;53.292;6.000;2022-08-14T15:31:09;4.40;;;4.00;;
56537;SDS011;42435;53.292;6.000;2022-08-14T15:33:34;5.90;;;4.18;;
56537;SDS011;42435;53.292;6.000;2022-08-14T15:36:18;4.28;;;3.88;;
56537;SDS011;42435;53.292;6.000;2022-08-14T15:38:46;7.43;;;3.88;;
56537;SDS011;42435;53.292;6.000;2022-08-14T15:41:12;7.53;;;3.85;;